To NAV CANADA Home Page Login to a new session Search on AWWS site Feedback and Comments Disclaimer Vers la page française équivalente Tips FAQ What's new on the site To the Forecasts and Observations / NOTAM section To "File a Flight Plan" website Publications and other links Update of the User's profile FIC Telephone Numbers My Weather Data Folder Route Weather Data Regional Weather Data Local Weather Data To the Forecasts and Observations / NOTAM section
Request Generated 02/24/2017 at 03:38:30 UTC . Weather information available at that time is displayed.

METAR/TAF

KELOWNA/BC    (show WxCam)

METAR CYLW 240300Z AUTO 00000KT 9SM OVC085 M03/M05 A3007 RMK SLP210=
METAR CYLW 240200Z AUTO 02004KT 350V060 9SM OVC080 M01/M05 A3007 RMK
SLP210=
METAR CYLW 240100Z AUTO 33004KT 9SM CLR 02/M05 A3007 RMK SLP208=

TAF CYLW 240038Z 2401/2413 VRB03KT P6SM SCT080 TEMPO 2401/2413 BKN080
RMK FCST BASED ON AUTO OBS. NXT FCST BY 240700Z=
Your time UTC time
Weather data provided by Environment Canada and NAV CANADA